Nearby METAR Reports

 

KSJC - San Jose, California, USA
Distance from station: NE 9mi, 14km
Updated: Sun, 16-Jun-2024 5:53am CDT
Clear
Clear
 Wind from N
Wind: N 3 mph , 6 km/h
Temperature: 57°F , 14°C
Dew Point: 46°F , 8°C
Humidity: 67%
Barometer: 29.90 inHg , 1012.5 hPa
Clouds: Clear
Visibility: 10 miles , 16 km
2024/06/16 10:53 KSJC 161053Z AUTO 35003KT 10SM CLR 14/08 A2990 RMK AO2 SLP124 T01390083
KNUQ - Moffett Nas/Mtn, California, USA
Distance from station: N 9mi, 14km
Updated: Sun, 16-Jun-2024 6:35am CDT
Haze, Clear
Haze, Clear
 Wind from calm
Wind: Calm
Temperature: 55°F , 13°C
Dew Point: 50°F , 10°C
Humidity: 82%
Barometer: 29.90 inHg , 1012.5 hPa
Summary: Haze
Clouds: Clear
Visibility: 6 miles , 10 km
2024/06/16 11:35 KNUQ 161135Z AUTO 00000KT 6SM HZ CLR 13/10 A2990 RMK AO2
 
KPAO - Palo Alto, California, USA
Distance from station: NNW 14mi, 23km
Updated: Sat, 15-Jun-2024 10:47pm CDT
NOT Current
Clear
Clear
 Wind from NNW
Wind: NNW 10 mph , 17 km/h
Temperature: 61°F , 16°C
Dew Point: 45°F , 7°C
Humidity: 55%
Barometer: 29.93 inHg , 1013.5 hPa
Clouds: Clear
Visibility: 10 miles , 16 km
2024/06/16 03:47 KPAO 160347Z 33009KT 10SM SKC 16/07 A2993 RMK LAST
KRHV - San Jose/Reid, California, USA
Distance from station: ENE 12mi, 19km
Updated: Sat, 15-Jun-2024 11:55pm CDT
NOT Current
Clear
Clear
 Wind from NNW
Wind: NNW 6 mph , 9 km/h
Temperature: 63°F , 17°C
Dew Point: 45°F , 7°C
Humidity: 52%
Barometer: 29.94 inHg , 1013.9 hPa
Clouds: Clear
Visibility: 10 miles , 16 km
2024/06/16 04:55 KRHV 160455Z 33005KT 10SM SKC 17/07 A2994 RMK LAST
 
KOAK - Oakland, California, USA
Distance from station: NNW 31mi, 50km
Updated: Sun, 16-Jun-2024 5:53am CDT
Clear
Clear
 Wind from ENE
Wind: ENE 5 mph , 7 km/h
Temperature: 54°F , 12°C
Dew Point: 50°F , 10°C
Humidity: 88%
Barometer: 29.90 inHg , 1012.5 hPa
Clouds: Clear
Visibility: 10 miles , 16 km
2024/06/16 10:53 KOAK 161053Z 07004KT 10SM CLR 12/10 A2990 RMK AO2 SLP123 T01220100
KSQL - San Carlos Airpo, California, USA
Distance from station: NW 21mi, 34km
Updated: Sun, 16-Jun-2024 6:35am CDT
Clear
Clear
 Wind from calm
Wind: Calm
Temperature: 55°F , 13°C
Dew Point: 48°F , 9°C
Humidity: 77%
Barometer: 29.91 inHg , 1012.9 hPa
Clouds: Clear
Visibility: 10 miles , 16 km
2024/06/16 11:35 KSQL 161135Z AUTO 00000KT 10SM CLR 13/09 A2991 RMK AO2
 
KSFO - San Francisco, California, USA
Distance from station: NW 30mi, 49km
Updated: Sun, 16-Jun-2024 5:56am CDT
Clear
Clear
 Wind from WNW
Wind: WNW 8 mph , 13 km/h
Temperature: 52°F , 11°C
Dew Point: 46°F , 8°C
Humidity: 82%
Barometer: 29.90 inHg , 1012.5 hPa
Clouds: Clear
Visibility: 10 miles , 16 km
2024/06/16 10:56 KSFO 161056Z 30007KT 10SM CLR 11/08 A2990 RMK AO2 SLP125 T01060078
KE16 - San Martin, California, USA
Distance from station: ESE 27mi, 43km
Updated: Sun, 16-Jun-2024 6:15am CDT
Clear
Clear
 Wind from calm
Wind: Calm
Temperature: 50°F , 10°C
Dew Point: 46°F , 8°C
Humidity: 88%
Barometer: 29.92 inHg , 1013.2 hPa
Clouds: Clear
Visibility: 8 miles , 13 km
2024/06/16 11:15 KE16 161115Z AUTO 00000KT 8SM CLR 10/08 A2992 RMK AO2 PWINO PNO
 
KWVI - Watsonville, California, USA
Distance from station: SSE 27mi, 44km
Updated: Sun, 16-Jun-2024 6:36am CDT
Mostly cloudy
Mostly cloudy
 Wind from calm
Wind: Calm
Temperature: 48°F , 9°C
Dew Point: 46°F , 8°C
Humidity: 94%
Barometer: 29.91 inHg , 1012.9 hPa
Clouds: Mostly cloudy
Visibility: 10 miles , 16 km
Cloud details: Mostly cloudy 600 ft
2024/06/16 11:36 KWVI 161136Z AUTO 00000KT 10SM BKN006 09/08 A2991 RMK AO2 CIG 004V009 T00940078
KHAF - Half Moon Bay, California, USA
Distance from station: WNW 31mi, 50km
Updated: Sun, 16-Jun-2024 6:35am CDT
Mist, Few clouds
Mist, Few clouds
 Wind from calm
Wind: Calm
Temperature: 46°F , 8°C
Dew Point: 46°F , 8°C
Humidity: 100%
Barometer: 29.93 inHg , 1013.5 hPa
Summary: Mist
Clouds: Few Clouds
Visibility: 6 miles , 10 km
Cloud details: Few Clouds 1400 ft
2024/06/16 11:35 KHAF 161135Z AUTO 00000KT 6SM BR FEW014 08/08 A2993 RMK AO2
 
KHWD - Hayward, California, USA
Distance from station: N 28mi, 44km
Updated: Sun, 16-Jun-2024 5:54am CDT
Clear
Clear
 Wind from SSW
Wind: SSW 5 mph , 7 km/h
Temperature: 57°F , 14°C
Dew Point: 48°F , 9°C
Humidity: 72%
Barometer: 29.90 inHg , 1012.5 hPa
Clouds: Clear
Visibility: 10 miles , 16 km
2024/06/16 10:54 KHWD 161054Z AUTO 21004KT 10SM CLR 14/09 A2990 RMK AO2 SLP133 T01390089
KLVK - Livermore, California, USA
Distance from station: NNE 31mi, 51km
Updated: Sun, 16-Jun-2024 5:53am CDT
Clear
Clear
 Wind from NW
Wind: NW 3 mph , 6 km/h
Temperature: 54°F , 12°C
Dew Point: 46°F , 8°C
Humidity: 77%
Barometer: 29.89 inHg , 1012.2 hPa
Clouds: Clear
Visibility: 9 miles , 14 km
2024/06/16 10:53 KLVK 161053Z AUTO 32003KT 9SM CLR 12/08 A2989 RMK AO2 SLP117 T01220078